sensor_id;sensor_type;location;lat;lon;timestamp;P1;durP1;ratioP1;P2;durP2;ratioP2
25649;SDS011;13505;45.196;5.696;2023-09-18T04:33:08;29.60;;;6.63;;
25649;SDS011;13505;45.196;5.696;2023-09-18T04:37:58;24.05;;;5.95;;
25649;SDS011;13505;45.196;5.696;2023-09-18T04:42:49;23.23;;;5.15;;
25649;SDS011;13505;45.196;5.696;2023-09-18T04:47:40;15.45;;;3.97;;
25649;SDS011;13505;45.196;5.696;2023-09-18T04:52:30;14.33;;;3.03;;
25649;SDS011;13505;45.196;5.696;2023-09-18T04:57:20;12.30;;;2.83;;
25649;SDS011;13505;45.196;5.696;2023-09-18T05:02:12;13.13;;;2.63;;
25649;SDS011;13505;45.196;5.696;2023-09-18T05:07:02;9.55;;;3.10;;
25649;SDS011;13505;45.196;5.696;2023-09-18T05:11:53;12.57;;;3.28;;
25649;SDS011;13505;45.196;5.696;2023-09-18T05:16:43;14.63;;;3.23;;
25649;SDS011;13505;45.196;5.696;2023-09-18T05:21:33;11.57;;;2.90;;
25649;SDS011;13505;45.196;5.696;2023-09-18T05:26:24;10.33;;;2.90;;
25649;SDS011;13505;45.196;5.696;2023-09-18T05:31:15;14.32;;;3.63;;
25649;SDS011;13505;45.196;5.696;2023-09-18T05:36:05;9.98;;;3.05;;
25649;SDS011;13505;45.196;5.696;2023-09-18T05:40:56;11.70;;;3.50;;
25649;SDS011;13505;45.196;5.696;2023-09-18T05:45:46;13.60;;;3.13;;
25649;SDS011;13505;45.196;5.696;2023-09-18T05:50:37;13.07;;;3.22;;
25649;SDS011;13505;45.196;5.696;2023-09-18T05:55:28;11.48;;;3.42;;
25649;SDS011;13505;45.196;5.696;2023-09-18T06:00:19;15.27;;;3.92;;
25649;SDS011;13505;45.196;5.696;2023-09-18T06:05:09;16.87;;;3.43;;
25649;SDS011;13505;45.196;5.696;2023-09-18T06:10:03;11.85;;;3.45;;
25649;SDS011;13505;45.196;5.696;2023-09-18T06:14:54;14.20;;;3.40;;
25649;SDS011;13505;45.196;5.696;2023-09-18T06:19:44;10.30;;;3.00;;
25649;SDS011;13505;45.196;5.696;2023-09-18T06:24:36;11.95;;;3.03;;
25649;SDS011;13505;45.196;5.696;2023-09-18T06:29:26;8.68;;;2.97;;
25649;SDS011;13505;45.196;5.696;2023-09-18T06:34:17;8.40;;;3.00;;
25649;SDS011;13505;45.196;5.696;2023-09-18T06:39:07;8.93;;;2.85;;
25649;SDS011;13505;45.196;5.696;2023-09-18T06:43:57;7.80;;;2.53;;
25649;SDS011;13505;45.196;5.696;2023-09-18T06:48:48;10.82;;;2.70;;
25649;SDS011;13505;45.196;5.696;2023-09-18T06:53:41;9.68;;;3.10;;
25649;SDS011;13505;45.196;5.696;2023-09-18T06:58:31;10.93;;;3.35;;
25649;SDS011;13505;45.196;5.696;2023-09-18T07:03:22;17.80;;;3.15;;
25649;SDS011;13505;45.196;5.696;2023-09-18T07:08:13;7.88;;;2.35;;
25649;SDS011;13505;45.196;5.696;2023-09-18T07:13:06;9.45;;;2.50;;
25649;SDS011;13505;45.196;5.696;2023-09-18T07:17:56;11.20;;;2.47;;
25649;SDS011;13505;45.196;5.696;2023-09-18T07:22:46;6.47;;;2.43;;
25649;SDS011;13505;45.196;5.696;2023-09-18T07:27:37;15.10;;;2.47;;
25649;SDS011;13505;45.196;5.696;2023-09-18T07:32:29;10.65;;;2.00;;
25649;SDS011;13505;45.196;5.696;2023-09-18T07:37:20;6.90;;;2.08;;
25649;SDS011;13505;45.196;5.696;2023-09-18T07:42:10;6.68;;;1.70;;
25649;SDS011;13505;45.196;5.696;2023-09-18T07:47:01;4.77;;;1.90;;
25649;SDS011;13505;45.196;5.696;2023-09-18T07:51:51;6.45;;;1.98;;
25649;SDS011;13505;45.196;5.696;2023-09-18T07:56:42;8.40;;;2.00;;
25649;SDS011;13505;45.196;5.696;2023-09-18T08:01:33;6.47;;;2.03;;
25649;SDS011;13505;45.196;5.696;2023-09-18T08:06:24;3.88;;;1.58;;
25649;SDS011;13505;45.196;5.696;2023-09-18T08:11:15;4.10;;;1.50;;
25649;SDS011;13505;45.196;5.696;2023-09-18T08:16:06;4.53;;;2.03;;
25649;SDS011;13505;45.196;5.696;2023-09-18T08:20:56;3.63;;;1.50;;
25649;SDS011;13505;45.196;5.696;2023-09-18T08:25:48;6.68;;;1.80;;
25649;SDS011;13505;45.196;5.696;2023-09-18T08:30:41;6.07;;;1.52;;
25649;SDS011;13505;45.196;5.696;2023-09-18T08:35:34;3.95;;;1.30;;
25649;SDS011;13505;45.196;5.696;2023-09-18T08:40:25;3.35;;;1.55;;
25649;SDS011;13505;45.196;5.696;2023-09-18T08:45:20;5.43;;;1.40;;
25649;SDS011;13505;45.196;5.696;2023-09-18T08:50:13;5.88;;;1.20;;
25649;SDS011;13505;45.196;5.696;2023-09-18T08:55:08;6.95;;;1.50;;
25649;SDS011;13505;45.196;5.696;2023-09-18T08:59:59;6.32;;;1.50;;
25649;SDS011;13505;45.196;5.696;2023-09-18T09:04:55;5.75;;;1.20;;
25649;SDS011;13505;45.196;5.696;2023-09-18T09:09:45;3.50;;;1.00;;
25649;SDS011;13505;45.196;5.696;2023-09-18T09:14:37;3.88;;;1.40;;
25649;SDS011;13505;45.196;5.696;2023-09-18T09:19:29;6.57;;;1.50;;
25649;SDS011;13505;45.196;5.696;2023-09-18T09:24:35;5.88;;;1.67;;
25649;SDS011;13505;45.196;5.696;2023-09-18T09:29:30;5.83;;;1.47;;
25649;SDS011;13505;45.196;5.696;2023-09-18T09:34:25;6.75;;;1.77;;
25649;SDS011;13505;45.196;5.696;2023-09-18T09:39:16;6.50;;;1.92;;
25649;SDS011;13505;45.196;5.696;2023-09-18T09:44:12;3.67;;;1.70;;
25649;SDS011;13505;45.196;5.696;2023-09-18T09:49:04;7.25;;;1.95;;
25649;SDS011;13505;45.196;5.696;2023-09-18T09:53:55;3.90;;;1.23;;
25649;SDS011;13505;45.196;5.696;2023-09-18T09:58:59;7.07;;;1.35;;
25649;SDS011;13505;45.196;5.696;2023-09-18T10:03:52;5.47;;;1.65;;
25649;SDS011;13505;45.196;5.696;2023-09-18T10:08:43;13.02;;;3.65;;
25649;SDS011;13505;45.196;5.696;2023-09-18T10:13:40;4.15;;;1.60;;
25649;SDS011;13505;45.196;5.696;2023-09-18T10:29:06;4.05;;;1.75;;
25649;SDS011;13505;45.196;5.696;2023-09-18T10:33:59;5.03;;;1.60;;
25649;SDS011;13505;45.196;5.696;2023-09-18T10:38:51;7.60;;;3.45;;
25649;SDS011;13505;45.196;5.696;2023-09-18T10:43:44;4.63;;;2.03;;
25649;SDS011;13505;45.196;5.696;2023-09-18T10:48:36;10.27;;;2.70;;
25649;SDS011;13505;45.196;5.696;2023-09-18T10:53:27;7.28;;;1.88;;
25649;SDS011;13505;45.196;5.696;2023-09-18T10:58:22;4.47;;;1.50;;
25649;SDS011;13505;45.196;5.696;2023-09-18T11:03:16;6.13;;;2.40;;
25649;SDS011;13505;45.196;5.696;2023-09-18T11:13:27;4.18;;;1.60;;
25649;SDS011;13505;45.196;5.696;2023-09-18T11:18:19;8.52;;;1.60;;
25649;SDS011;13505;45.196;5.696;2023-09-18T11:23:18;11.05;;;2.33;;
25649;SDS011;13505;45.196;5.696;2023-09-18T11:28:15;9.80;;;3.75;;
25649;SDS011;13505;45.196;5.696;2023-09-18T11:33:12;8.25;;;2.30;;
25649;SDS011;13505;45.196;5.696;2023-09-18T11:38:04;11.05;;;1.95;;
25649;SDS011;13505;45.196;5.696;2023-09-18T11:48:09;5.28;;;1.65;;
25649;SDS011;13505;45.196;5.696;2023-09-18T11:53:02;6.07;;;1.73;;
25649;SDS011;13505;45.196;5.696;2023-09-18T11:57:52;10.73;;;2.97;;
25649;SDS011;13505;45.196;5.696;2023-09-18T12:02:48;10.80;;;2.63;;
25649;SDS011;13505;45.196;5.696;2023-09-18T12:07:39;5.82;;;1.88;;
25649;SDS011;13505;45.196;5.696;2023-09-18T12:12:33;4.43;;;1.63;;
25649;SDS011;13505;45.196;5.696;2023-09-18T12:17:24;3.15;;;1.60;;
25649;SDS011;13505;45.196;5.696;2023-09-18T12:22:22;3.22;;;1.42;;
25649;SDS011;13505;45.196;5.696;2023-09-18T12:27:13;4.40;;;1.60;;
25649;SDS011;13505;45.196;5.696;2023-09-18T12:32:04;8.60;;;1.60;;
25649;SDS011;13505;45.196;5.696;2023-09-18T12:37:03;3.80;;;1.33;;
25649;SDS011;13505;45.196;5.696;2023-09-18T12:41:54;6.25;;;2.10;;
25649;SDS011;13505;45.196;5.696;2023-09-18T12:46:44;4.10;;;1.83;;
25649;SDS011;13505;45.196;5.696;2023-09-18T12:51:36;10.48;;;1.92;;
25649;SDS011;13505;45.196;5.696;2023-09-18T12:56:27;10.37;;;3.13;;
25649;SDS011;13505;45.196;5.696;2023-09-18T13:01:17;7.57;;;1.98;;
25649;SDS011;13505;45.196;5.696;2023-09-18T13:06:08;5.13;;;1.50;;
25649;SDS011;13505;45.196;5.696;2023-09-18T13:11:17;6.83;;;1.70;;
25649;SDS011;13505;45.196;5.696;2023-09-18T13:16:08;4.43;;;1.90;;
25649;SDS011;13505;45.196;5.696;2023-09-18T13:20:59;4.78;;;1.55;;
25649;SDS011;13505;45.196;5.696;2023-09-18T13:25:50;4.78;;;1.63;;
25649;SDS011;13505;45.196;5.696;2023-09-18T13:30:41;4.47;;;1.77;;
25649;SDS011;13505;45.196;5.696;2023-09-18T13:35:33;6.15;;;2.17;;
25649;SDS011;13505;45.196;5.696;2023-09-18T13:40:24;6.55;;;2.03;;
25649;SDS011;13505;45.196;5.696;2023-09-18T13:45:15;4.10;;;1.50;;
25649;SDS011;13505;45.196;5.696;2023-09-18T13:50:08;4.55;;;1.73;;
25649;SDS011;13505;45.196;5.696;2023-09-18T13:54:59;4.50;;;1.65;;
25649;SDS011;13505;45.196;5.696;2023-09-18T13:59:50;3.53;;;1.45;;
25649;SDS011;13505;45.196;5.696;2023-09-18T14:04:42;5.38;;;1.60;;
25649;SDS011;13505;45.196;5.696;2023-09-18T14:09:32;4.20;;;1.80;;
25649;SDS011;13505;45.196;5.696;2023-09-18T14:14:23;7.33;;;2.00;;
25649;SDS011;13505;45.196;5.696;2023-09-18T14:19:14;3.85;;;1.50;;
25649;SDS011;13505;45.196;5.696;2023-09-18T14:24:04;4.17;;;1.80;;
25649;SDS011;13505;45.196;5.696;2023-09-18T14:28:55;3.80;;;1.80;;
25649;SDS011;13505;45.196;5.696;2023-09-18T14:33:46;5.20;;;1.70;;
25649;SDS011;13505;45.196;5.696;2023-09-18T14:38:36;6.33;;;2.10;;
25649;SDS011;13505;45.196;5.696;2023-09-18T14:43:26;6.70;;;2.20;;
25649;SDS011;13505;45.196;5.696;2023-09-18T14:48:17;6.70;;;1.90;;
25649;SDS011;13505;45.196;5.696;2023-09-18T14:53:07;5.35;;;2.20;;
25649;SDS011;13505;45.196;5.696;2023-09-18T14:57:58;5.05;;;1.77;;
25649;SDS011;13505;45.196;5.696;2023-09-18T15:02:49;5.90;;;2.03;;
25649;SDS011;13505;45.196;5.696;2023-09-18T15:07:39;4.77;;;1.90;;
25649;SDS011;13505;45.196;5.696;2023-09-18T15:12:30;5.40;;;1.70;;
25649;SDS011;13505;45.196;5.696;2023-09-18T15:17:21;3.35;;;1.70;;
25649;SDS011;13505;45.196;5.696;2023-09-18T15:22:11;3.67;;;1.63;;
25649;SDS011;13505;45.196;5.696;2023-09-18T15:27:02;3.28;;;1.95;;
25649;SDS011;13505;45.196;5.696;2023-09-18T15:31:52;4.65;;;1.60;;
25649;SDS011;13505;45.196;5.696;2023-09-18T15:36:43;6.38;;;1.48;;
25649;SDS011;13505;45.196;5.696;2023-09-18T15:41:33;4.43;;;1.57;;
25649;SDS011;13505;45.196;5.696;2023-09-18T15:46:24;3.50;;;1.80;;
25649;SDS011;13505;45.196;5.696;2023-09-18T15:51:15;7.47;;;1.80;;
25649;SDS011;13505;45.196;5.696;2023-09-18T15:56:05;7.97;;;1.70;;
25649;SDS011;13505;45.196;5.696;2023-09-18T16:00:55;4.60;;;1.40;;
25649;SDS011;13505;45.196;5.696;2023-09-18T16:05:48;3.22;;;1.88;;
25649;SDS011;13505;45.196;5.696;2023-09-18T16:10:41;3.28;;;1.60;;
25649;SDS011;13505;45.196;5.696;2023-09-18T16:15:33;3.40;;;1.60;;
25649;SDS011;13505;45.196;5.696;2023-09-18T16:20:23;4.60;;;1.63;;
25649;SDS011;13505;45.196;5.696;2023-09-18T16:25:13;4.55;;;1.65;;
25649;SDS011;13505;45.196;5.696;2023-09-18T16:30:04;6.07;;;1.92;;
25649;SDS011;13505;45.196;5.696;2023-09-18T16:34:56;4.10;;;1.80;;
25649;SDS011;13505;45.196;5.696;2023-09-18T16:39:46;3.77;;;1.80;;
25649;SDS011;13505;45.196;5.696;2023-09-18T16:44:36;2.55;;;1.80;;
25649;SDS011;13505;45.196;5.696;2023-09-18T16:49:29;4.03;;;1.60;;
25649;SDS011;13505;45.196;5.696;2023-09-18T16:54:19;2.53;;;1.43;;
25649;SDS011;13505;45.196;5.696;2023-09-18T16:59:13;4.28;;;1.60;;
25649;SDS011;13505;45.196;5.696;2023-09-18T17:04:04;4.38;;;1.50;;
25649;SDS011;13505;45.196;5.696;2023-09-18T17:08:54;2.25;;;1.58;;
25649;SDS011;13505;45.196;5.696;2023-09-18T17:13:45;1.90;;;1.48;;
25649;SDS011;13505;45.196;5.696;2023-09-18T17:18:36;4.63;;;1.30;;
25649;SDS011;13505;45.196;5.696;2023-09-18T17:23:28;3.03;;;1.90;;
25649;SDS011;13505;45.196;5.696;2023-09-18T17:28:19;2.15;;;1.48;;
25649;SDS011;13505;45.196;5.696;2023-09-18T17:33:09;4.53;;;1.57;;
25649;SDS011;13505;45.196;5.696;2023-09-18T17:37:59;3.28;;;1.70;;
25649;SDS011;13505;45.196;5.696;2023-09-18T17:42:50;5.32;;;1.77;;
25649;SDS011;13505;45.196;5.696;2023-09-18T17:47:42;4.50;;;1.73;;
25649;SDS011;13505;45.196;5.696;2023-09-18T17:52:33;3.33;;;1.53;;
25649;SDS011;13505;45.196;5.696;2023-09-18T17:57:26;3.13;;;1.80;;
25649;SDS011;13505;45.196;5.696;2023-09-18T18:02:17;3.13;;;1.70;;
25649;SDS011;13505;45.196;5.696;2023-09-18T18:07:07;4.28;;;1.70;;
25649;SDS011;13505;45.196;5.696;2023-09-18T18:11:58;3.67;;;1.53;;
25649;SDS011;13505;45.196;5.696;2023-09-18T18:16:48;4.53;;;1.80;;
25649;SDS011;13505;45.196;5.696;2023-09-18T18:21:41;3.92;;;1.95;;
25649;SDS011;13505;45.196;5.696;2023-09-18T18:26:32;4.50;;;2.93;;
25649;SDS011;13505;45.196;5.696;2023-09-18T18:31:24;3.78;;;1.95;;
25649;SDS011;13505;45.196;5.696;2023-09-18T18:36:14;5.23;;;2.33;;
25649;SDS011;13505;45.196;5.696;2023-09-18T18:41:05;2.95;;;1.85;;
25649;SDS011;13505;45.196;5.696;2023-09-18T18:45:55;5.95;;;2.00;;
25649;SDS011;13505;45.196;5.696;2023-09-18T18:50:49;4.80;;;1.83;;
25649;SDS011;13505;45.196;5.696;2023-09-18T18:55:39;2.75;;;1.58;;
25649;SDS011;13505;45.196;5.696;2023-09-18T19:00:30;2.65;;;1.60;;
25649;SDS011;13505;45.196;5.696;2023-09-18T19:05:22;5.40;;;1.88;;
25649;SDS011;13505;45.196;5.696;2023-09-18T19:10:14;4.75;;;1.70;;
25649;SDS011;13505;45.196;5.696;2023-09-18T19:15:04;3.00;;;1.63;;
25649;SDS011;13505;45.196;5.696;2023-09-18T19:19:55;3.72;;;1.83;;
25649;SDS011;13505;45.196;5.696;2023-09-18T19:24:46;2.50;;;1.97;;
25649;SDS011;13505;45.196;5.696;2023-09-18T19:29:36;5.93;;;2.05;;
25649;SDS011;13505;45.196;5.696;2023-09-18T19:34:27;7.18;;;2.60;;
25649;SDS011;13505;45.196;5.696;2023-09-18T19:39:17;5.60;;;2.50;;
25649;SDS011;13505;45.196;5.696;2023-09-18T19:44:07;3.38;;;2.42;;
25649;SDS011;13505;45.196;5.696;2023-09-18T19:48:58;4.75;;;2.00;;
25649;SDS011;13505;45.196;5.696;2023-09-18T19:53:49;5.50;;;2.30;;
25649;SDS011;13505;45.196;5.696;2023-09-18T19:58:39;8.03;;;2.37;;
25649;SDS011;13505;45.196;5.696;2023-09-18T20:03:29;4.57;;;3.07;;
25649;SDS011;13505;45.196;5.696;2023-09-18T20:08:20;12.30;;;3.55;;
25649;SDS011;13505;45.196;5.696;2023-09-18T20:13:10;5.00;;;2.90;;
25649;SDS011;13505;45.196;5.696;2023-09-18T20:18:00;5.53;;;2.87;;
25649;SDS011;13505;45.196;5.696;2023-09-18T20:22:51;4.53;;;2.80;;
25649;SDS011;13505;45.196;5.696;2023-09-18T20:27:41;4.75;;;3.13;;
25649;SDS011;13505;45.196;5.696;2023-09-18T20:32:32;5.88;;;2.47;;
25649;SDS011;13505;45.196;5.696;2023-09-18T20:37:23;7.15;;;2.33;;
25649;SDS011;13505;45.196;5.696;2023-09-18T20:42:13;4.10;;;2.67;;
25649;SDS011;13505;45.196;5.696;2023-09-18T20:47:04;10.27;;;2.40;;
25649;SDS011;13505;45.196;5.696;2023-09-18T20:51:54;9.20;;;2.40;;
25649;SDS011;13505;45.196;5.696;2023-09-18T20:56:44;7.73;;;2.70;;
25649;SDS011;13505;45.196;5.696;2023-09-18T21:01:35;5.30;;;2.23;;
25649;SDS011;13505;45.196;5.696;2023-09-18T21:06:25;3.90;;;2.53;;
25649;SDS011;13505;45.196;5.696;2023-09-18T21:11:15;8.17;;;3.30;;
25649;SDS011;13505;45.196;5.696;2023-09-18T21:16:06;4.97;;;2.90;;
25649;SDS011;13505;45.196;5.696;2023-09-18T21:20:57;6.80;;;2.90;;
25649;SDS011;13505;45.196;5.696;2023-09-18T21:25:49;7.28;;;3.05;;
25649;SDS011;13505;45.196;5.696;2023-09-18T21:30:40;4.65;;;2.80;;
25649;SDS011;13505;45.196;5.696;2023-09-18T21:35:31;13.70;;;3.00;;
25649;SDS011;13505;45.196;5.696;2023-09-18T21:40:21;5.50;;;2.28;;
25649;SDS011;13505;45.196;5.696;2023-09-18T21:45:13;3.50;;;2.50;;
25649;SDS011;13505;45.196;5.696;2023-09-18T21:50:03;5.32;;;3.20;;
25649;SDS011;13505;45.196;5.696;2023-09-18T21:54:57;8.50;;;3.38;;
25649;SDS011;13505;45.196;5.696;2023-09-18T21:59:47;6.87;;;3.43;;
